Terminal Aerodrome Forecast
Issued by NWS

Home | Current Version | Previous Version | Text Only | Print | Product List | Glossary On
Versions: 1 2 3 4 5 6 7 8 9 10 11 12 13 14
147
FTUS45 KRIW 290520
TAFCPR
TAF
KCPR 290520Z 2906/3006 03008KT P6SM SCT035 SCT070
      TEMPO 2906/2910 BKN023
     FM291000 24006KT P6SM VCFG SCT007
      TEMPO 2911/2915 6SM BR SCT007 BKN013
     FM291600 24010KT P6SM SKC=

USA.gov is the U.S. government's official web portal to all federal, state and local government web resources and services.